sensor_id;sensor_type;location;lat;lon;timestamp;P1;durP1;ratioP1;P2;durP2;ratioP2
4957;SDS011;2494;51.872;9.688;2022-10-04T00:01:54;6.63;;;3.40;;
4957;SDS011;2494;51.872;9.688;2022-10-04T00:04:23;5.90;;;3.93;;
4957;SDS011;2494;51.872;9.688;2022-10-04T00:06:53;4.40;;;4.00;;
4957;SDS011;2494;51.872;9.688;2022-10-04T00:09:21;5.93;;;4.00;;
4957;SDS011;2494;51.872;9.688;2022-10-04T00:11:49;8.23;;;3.73;;
4957;SDS011;2494;51.872;9.688;2022-10-04T00:14:19;10.43;;;4.27;;
4957;SDS011;2494;51.872;9.688;2022-10-04T00:16:48;10.40;;;4.83;;
4957;SDS011;2494;51.872;9.688;2022-10-04T00:19:36;10.17;;;4.30;;
4957;SDS011;2494;51.872;9.688;2022-10-04T00:22:17;5.57;;;3.67;;
4957;SDS011;2494;51.872;9.688;2022-10-04T00:24:59;8.10;;;4.17;;
4957;SDS011;2494;51.872;9.688;2022-10-04T00:27:26;4.57;;;4.17;;
4957;SDS011;2494;51.872;9.688;2022-10-04T00:30:13;6.83;;;4.00;;
4957;SDS011;2494;51.872;9.688;2022-10-04T00:32:45;6.30;;;4.17;;
4957;SDS011;2494;51.872;9.688;2022-10-04T00:37:56;5.93;;;5.07;;
4957;SDS011;2494;51.872;9.688;2022-10-04T00:40:23;8.10;;;4.43;;
4957;SDS011;2494;51.872;9.688;2022-10-04T00:42:54;8.00;;;4.83;;
4957;SDS011;2494;51.872;9.688;2022-10-04T00:45:33;9.13;;;4.93;;
4957;SDS011;2494;51.872;9.688;2022-10-04T00:48:05;6.63;;;5.13;;
4957;SDS011;2494;51.872;9.688;2022-10-04T00:50:37;10.20;;;5.10;;
4957;SDS011;2494;51.872;9.688;2022-10-04T00:53:12;11.03;;;5.27;;
4957;SDS011;2494;51.872;9.688;2022-10-04T00:55:42;10.63;;;5.10;;
4957;SDS011;2494;51.872;9.688;2022-10-04T00:58:13;6.80;;;4.53;;
4957;SDS011;2494;51.872;9.688;2022-10-04T01:00:41;5.63;;;4.77;;
4957;SDS011;2494;51.872;9.688;2022-10-04T01:03:09;6.50;;;5.00;;
4957;SDS011;2494;51.872;9.688;2022-10-04T01:05:37;9.43;;;4.93;;
4957;SDS011;2494;51.872;9.688;2022-10-04T01:08:06;12.30;;;5.73;;
4957;SDS011;2494;51.872;9.688;2022-10-04T01:10:37;8.03;;;4.80;;
4957;SDS011;2494;51.872;9.688;2022-10-04T01:13:06;6.27;;;5.67;;
4957;SDS011;2494;51.872;9.688;2022-10-04T01:15:35;7.50;;;4.17;;
4957;SDS011;2494;51.872;9.688;2022-10-04T01:18:11;13.43;;;4.87;;
4957;SDS011;2494;51.872;9.688;2022-10-04T01:20:38;7.13;;;4.60;;
4957;SDS011;2494;51.872;9.688;2022-10-04T01:23:09;16.17;;;4.40;;
4957;SDS011;2494;51.872;9.688;2022-10-04T01:25:42;5.00;;;4.53;;
4957;SDS011;2494;51.872;9.688;2022-10-04T01:28:09;7.93;;;4.30;;
4957;SDS011;2494;51.872;9.688;2022-10-04T01:30:36;9.97;;;4.77;;
4957;SDS011;2494;51.872;9.688;2022-10-04T01:33:03;5.23;;;4.50;;
4957;SDS011;2494;51.872;9.688;2022-10-04T01:35:31;12.10;;;4.77;;
4957;SDS011;2494;51.872;9.688;2022-10-04T01:37:59;17.83;;;5.37;;
4957;SDS011;2494;51.872;9.688;2022-10-04T01:40:27;6.67;;;5.17;;
4957;SDS011;2494;51.872;9.688;2022-10-04T01:42:57;7.40;;;5.47;;
4957;SDS011;2494;51.872;9.688;2022-10-04T01:45:27;11.80;;;6.00;;
4957;SDS011;2494;51.872;9.688;2022-10-04T01:47:56;16.20;;;5.63;;
4957;SDS011;2494;51.872;9.688;2022-10-04T01:50:26;9.40;;;6.20;;
4957;SDS011;2494;51.872;9.688;2022-10-04T01:52:54;6.93;;;4.80;;
4957;SDS011;2494;51.872;9.688;2022-10-04T01:55:26;8.57;;;5.50;;
4957;SDS011;2494;51.872;9.688;2022-10-04T01:57:56;7.63;;;5.00;;
4957;SDS011;2494;51.872;9.688;2022-10-04T02:00:25;7.50;;;5.50;;
4957;SDS011;2494;51.872;9.688;2022-10-04T02:02:52;20.67;;;5.80;;
4957;SDS011;2494;51.872;9.688;2022-10-04T02:05:25;10.70;;;6.10;;
4957;SDS011;2494;51.872;9.688;2022-10-04T02:07:53;12.77;;;5.70;;
4957;SDS011;2494;51.872;9.688;2022-10-04T02:10:20;8.17;;;5.60;;
4957;SDS011;2494;51.872;9.688;2022-10-04T02:12:50;8.43;;;5.93;;
4957;SDS011;2494;51.872;9.688;2022-10-04T02:15:20;7.27;;;6.37;;
4957;SDS011;2494;51.872;9.688;2022-10-04T02:17:49;7.47;;;6.73;;
4957;SDS011;2494;51.872;9.688;2022-10-04T02:20:16;9.33;;;6.00;;
4957;SDS011;2494;51.872;9.688;2022-10-04T02:22:43;6.67;;;5.00;;
4957;SDS011;2494;51.872;9.688;2022-10-04T02:25:11;5.67;;;5.17;;
4957;SDS011;2494;51.872;9.688;2022-10-04T02:27:38;6.13;;;5.63;;
4957;SDS011;2494;51.872;9.688;2022-10-04T02:30:06;5.93;;;5.33;;
4957;SDS011;2494;51.872;9.688;2022-10-04T02:32:34;10.73;;;6.33;;
4957;SDS011;2494;51.872;9.688;2022-10-04T02:35:19;7.07;;;5.70;;
4957;SDS011;2494;51.872;9.688;2022-10-04T02:37:46;7.93;;;5.60;;
4957;SDS011;2494;51.872;9.688;2022-10-04T02:40:15;6.20;;;5.60;;
4957;SDS011;2494;51.872;9.688;2022-10-04T02:42:43;8.83;;;6.20;;
4957;SDS011;2494;51.872;9.688;2022-10-04T02:45:14;7.80;;;5.40;;
4957;SDS011;2494;51.872;9.688;2022-10-04T02:47:43;5.93;;;5.43;;
4957;SDS011;2494;51.872;9.688;2022-10-04T02:50:17;8.63;;;5.20;;
4957;SDS011;2494;51.872;9.688;2022-10-04T02:52:47;11.87;;;5.87;;
4957;SDS011;2494;51.872;9.688;2022-10-04T02:55:17;5.53;;;5.03;;
4957;SDS011;2494;51.872;9.688;2022-10-04T02:57:45;10.17;;;6.30;;
4957;SDS011;2494;51.872;9.688;2022-10-04T03:00:16;6.57;;;5.83;;
4957;SDS011;2494;51.872;9.688;2022-10-04T03:05:27;10.30;;;6.13;;
4957;SDS011;2494;51.872;9.688;2022-10-04T03:07:54;8.60;;;6.90;;
4957;SDS011;2494;51.872;9.688;2022-10-04T03:10:20;9.30;;;6.70;;
4957;SDS011;2494;51.872;9.688;2022-10-04T03:12:48;14.90;;;7.20;;
4957;SDS011;2494;51.872;9.688;2022-10-04T03:15:15;7.53;;;6.53;;
4957;SDS011;2494;51.872;9.688;2022-10-04T03:17:42;7.97;;;6.30;;
4957;SDS011;2494;51.872;9.688;2022-10-04T03:20:09;8.80;;;5.33;;
4957;SDS011;2494;51.872;9.688;2022-10-04T03:22:40;5.57;;;4.90;;
4957;SDS011;2494;51.872;9.688;2022-10-04T03:25:09;8.53;;;6.10;;
4957;SDS011;2494;51.872;9.688;2022-10-04T03:27:41;12.97;;;5.43;;
4957;SDS011;2494;51.872;9.688;2022-10-04T03:30:10;6.83;;;5.97;;
4957;SDS011;2494;51.872;9.688;2022-10-04T03:32:38;8.00;;;7.20;;
4957;SDS011;2494;51.872;9.688;2022-10-04T03:35:05;9.20;;;5.90;;
4957;SDS011;2494;51.872;9.688;2022-10-04T03:37:33;7.60;;;5.83;;
4957;SDS011;2494;51.872;9.688;2022-10-04T03:40:02;6.93;;;6.33;;
4957;SDS011;2494;51.872;9.688;2022-10-04T03:42:30;7.87;;;5.57;;
4957;SDS011;2494;51.872;9.688;2022-10-04T03:44:59;13.37;;;7.70;;
4957;SDS011;2494;51.872;9.688;2022-10-04T03:47:28;10.47;;;7.43;;
4957;SDS011;2494;51.872;9.688;2022-10-04T03:49:55;7.73;;;7.03;;
4957;SDS011;2494;51.872;9.688;2022-10-04T03:52:25;8.30;;;7.50;;
4957;SDS011;2494;51.872;9.688;2022-10-04T03:54:53;10.83;;;8.47;;
4957;SDS011;2494;51.872;9.688;2022-10-04T03:57:23;14.90;;;7.60;;
4957;SDS011;2494;51.872;9.688;2022-10-04T03:59:50;9.50;;;7.07;;
4957;SDS011;2494;51.872;9.688;2022-10-04T04:02:17;10.83;;;6.90;;
4957;SDS011;2494;51.872;9.688;2022-10-04T04:04:49;11.03;;;8.23;;
4957;SDS011;2494;51.872;9.688;2022-10-04T04:07:23;15.57;;;9.50;;
4957;SDS011;2494;51.872;9.688;2022-10-04T04:09:51;8.70;;;7.80;;
4957;SDS011;2494;51.872;9.688;2022-10-04T04:12:19;12.83;;;7.87;;
4957;SDS011;2494;51.872;9.688;2022-10-04T04:14:49;9.30;;;7.27;;
4957;SDS011;2494;51.872;9.688;2022-10-04T04:17:17;10.70;;;8.20;;
4957;SDS011;2494;51.872;9.688;2022-10-04T04:19:53;9.17;;;7.27;;
4957;SDS011;2494;51.872;9.688;2022-10-04T04:22:22;9.10;;;7.90;;
4957;SDS011;2494;51.872;9.688;2022-10-04T04:24:56;10.97;;;8.00;;
4957;SDS011;2494;51.872;9.688;2022-10-04T04:27:23;11.20;;;8.57;;
4957;SDS011;2494;51.872;9.688;2022-10-04T04:29:51;8.80;;;7.90;;
4957;SDS011;2494;51.872;9.688;2022-10-04T04:32:19;10.50;;;8.53;;
4957;SDS011;2494;51.872;9.688;2022-10-04T04:34:48;8.57;;;7.67;;
4957;SDS011;2494;51.872;9.688;2022-10-04T04:37:17;10.43;;;8.77;;
4957;SDS011;2494;51.872;9.688;2022-10-04T04:39:43;9.83;;;8.23;;
4957;SDS011;2494;51.872;9.688;2022-10-04T04:42:14;14.10;;;8.77;;
4957;SDS011;2494;51.872;9.688;2022-10-04T04:44:45;10.30;;;9.30;;
4957;SDS011;2494;51.872;9.688;2022-10-04T04:47:24;10.03;;;8.63;;
4957;SDS011;2494;51.872;9.688;2022-10-04T04:49:52;10.70;;;8.10;;
4957;SDS011;2494;51.872;9.688;2022-10-04T04:52:19;10.60;;;9.50;;
4957;SDS011;2494;51.872;9.688;2022-10-04T04:54:47;9.37;;;8.57;;
4957;SDS011;2494;51.872;9.688;2022-10-04T04:57:14;11.57;;;10.23;;
4957;SDS011;2494;51.872;9.688;2022-10-04T04:59:42;11.73;;;10.53;;
4957;SDS011;2494;51.872;9.688;2022-10-04T05:07:33;9.87;;;8.87;;
4957;SDS011;2494;51.872;9.688;2022-10-04T05:10:00;13.57;;;10.87;;
4957;SDS011;2494;51.872;9.688;2022-10-04T05:12:26;11.50;;;10.27;;
4957;SDS011;2494;51.872;9.688;2022-10-04T05:14:53;11.80;;;10.60;;
4957;SDS011;2494;51.872;9.688;2022-10-04T05:17:20;12.27;;;10.97;;
4957;SDS011;2494;51.872;9.688;2022-10-04T05:19:49;11.63;;;9.97;;
4957;SDS011;2494;51.872;9.688;2022-10-04T05:22:16;14.10;;;9.53;;
4957;SDS011;2494;51.872;9.688;2022-10-04T05:24:46;11.83;;;10.60;;
4957;SDS011;2494;51.872;9.688;2022-10-04T05:27:15;11.23;;;10.00;;
4957;SDS011;2494;51.872;9.688;2022-10-04T05:29:54;10.93;;;9.93;;
4957;SDS011;2494;51.872;9.688;2022-10-04T05:32:23;9.97;;;8.93;;
4957;SDS011;2494;51.872;9.688;2022-10-04T05:34:53;10.83;;;9.07;;
4957;SDS011;2494;51.872;9.688;2022-10-04T05:37:34;10.27;;;9.37;;
4957;SDS011;2494;51.872;9.688;2022-10-04T05:40:15;10.13;;;9.23;;
4957;SDS011;2494;51.872;9.688;2022-10-04T05:42:47;10.60;;;9.60;;
4957;SDS011;2494;51.872;9.688;2022-10-04T05:45:16;14.33;;;12.77;;
4957;SDS011;2494;51.872;9.688;2022-10-04T05:47:43;14.00;;;12.40;;
4957;SDS011;2494;51.872;9.688;2022-10-04T05:50:13;10.20;;;9.40;;
4957;SDS011;2494;51.872;9.688;2022-10-04T05:52:40;10.60;;;9.40;;
4957;SDS011;2494;51.872;9.688;2022-10-04T06:00:46;11.87;;;9.60;;
4957;SDS011;2494;51.872;9.688;2022-10-04T06:03:22;10.50;;;7.73;;
4957;SDS011;2494;51.872;9.688;2022-10-04T06:05:50;8.47;;;7.70;;
4957;SDS011;2494;51.872;9.688;2022-10-04T06:08:22;8.13;;;7.33;;
4957;SDS011;2494;51.872;9.688;2022-10-04T06:10:54;8.77;;;8.07;;
4957;SDS011;2494;51.872;9.688;2022-10-04T06:13:27;10.60;;;9.73;;
4957;SDS011;2494;51.872;9.688;2022-10-04T06:16:05;11.57;;;10.60;;
4957;SDS011;2494;51.872;9.688;2022-10-04T06:18:41;9.70;;;9.00;;
4957;SDS011;2494;51.872;9.688;2022-10-04T06:21:18;9.07;;;8.27;;
4957;SDS011;2494;51.872;9.688;2022-10-04T06:23:46;9.93;;;9.07;;
4957;SDS011;2494;51.872;9.688;2022-10-04T06:26:17;14.90;;;8.03;;
4957;SDS011;2494;51.872;9.688;2022-10-04T06:28:44;57.43;;;8.50;;
4957;SDS011;2494;51.872;9.688;2022-10-04T06:31:22;14.57;;;6.97;;
4957;SDS011;2494;51.872;9.688;2022-10-04T06:39:31;64.53;;;10.93;;
4957;SDS011;2494;51.872;9.688;2022-10-04T06:44:57;93.23;;;12.37;;
4957;SDS011;2494;51.872;9.688;2022-10-04T06:50:45;60.10;;;10.20;;
4957;SDS011;2494;51.872;9.688;2022-10-04T06:53:21;55.67;;;9.07;;
4957;SDS011;2494;51.872;9.688;2022-10-04T06:59:10;77.33;;;12.10;;
4957;SDS011;2494;51.872;9.688;2022-10-04T07:01:45;17.70;;;9.10;;
4957;SDS011;2494;51.872;9.688;2022-10-04T07:04:30;11.40;;;10.13;;
4957;SDS011;2494;51.872;9.688;2022-10-04T07:10:24;8.10;;;7.30;;
4957;SDS011;2494;51.872;9.688;2022-10-04T07:12:58;7.67;;;7.07;;
4957;SDS011;2494;51.872;9.688;2022-10-04T07:15:30;10.27;;;7.73;;
4957;SDS011;2494;51.872;9.688;2022-10-04T07:18:02;7.67;;;6.97;;
4957;SDS011;2494;51.872;9.688;2022-10-04T07:20:32;4.90;;;4.60;;
4957;SDS011;2494;51.872;9.688;2022-10-04T07:23:00;6.30;;;5.30;;
4957;SDS011;2494;51.872;9.688;2022-10-04T07:25:30;4.97;;;4.67;;
4957;SDS011;2494;51.872;9.688;2022-10-04T07:28:01;7.07;;;6.57;;
4957;SDS011;2494;51.872;9.688;2022-10-04T07:30:47;4.90;;;4.60;;
4957;SDS011;2494;51.872;9.688;2022-10-04T07:33:17;4.80;;;4.40;;
4957;SDS011;2494;51.872;9.688;2022-10-04T07:35:47;5.40;;;5.10;;
4957;SDS011;2494;51.872;9.688;2022-10-04T07:38:16;4.73;;;4.20;;
4957;SDS011;2494;51.872;9.688;2022-10-04T07:40:48;5.23;;;4.47;;
4957;SDS011;2494;51.872;9.688;2022-10-04T07:43:19;6.00;;;5.40;;
4957;SDS011;2494;51.872;9.688;2022-10-04T07:45:47;12.87;;;5.40;;
4957;SDS011;2494;51.872;9.688;2022-10-04T07:48:16;9.83;;;5.90;;
4957;SDS011;2494;51.872;9.688;2022-10-04T07:50:48;6.17;;;5.67;;
4957;SDS011;2494;51.872;9.688;2022-10-04T07:53:16;5.27;;;4.90;;
4957;SDS011;2494;51.872;9.688;2022-10-04T07:55:54;5.30;;;4.90;;
4957;SDS011;2494;51.872;9.688;2022-10-04T07:58:25;6.60;;;6.10;;
4957;SDS011;2494;51.872;9.688;2022-10-04T08:00:54;6.40;;;6.00;;
4957;SDS011;2494;51.872;9.688;2022-10-04T08:03:29;7.90;;;6.63;;
4957;SDS011;2494;51.872;9.688;2022-10-04T08:06:05;7.70;;;7.00;;
4957;SDS011;2494;51.872;9.688;2022-10-04T08:08:38;6.60;;;6.20;;
4957;SDS011;2494;51.872;9.688;2022-10-04T08:11:18;7.40;;;6.83;;
4957;SDS011;2494;51.872;9.688;2022-10-04T08:13:49;7.63;;;6.87;;
4957;SDS011;2494;51.872;9.688;2022-10-04T08:16:19;8.43;;;7.63;;
4957;SDS011;2494;51.872;9.688;2022-10-04T08:18:49;8.77;;;7.50;;
4957;SDS011;2494;51.872;9.688;2022-10-04T08:21:25;7.70;;;7.20;;
4957;SDS011;2494;51.872;9.688;2022-10-04T08:23:59;8.30;;;7.77;;
4957;SDS011;2494;51.872;9.688;2022-10-04T08:26:47;8.23;;;7.50;;
4957;SDS011;2494;51.872;9.688;2022-10-04T08:29:25;8.50;;;7.90;;
4957;SDS011;2494;51.872;9.688;2022-10-04T08:32:10;8.67;;;7.87;;
4957;SDS011;2494;51.872;9.688;2022-10-04T08:34:49;10.50;;;9.50;;
4957;SDS011;2494;51.872;9.688;2022-10-04T08:37:27;11.20;;;8.70;;
4957;SDS011;2494;51.872;9.688;2022-10-04T08:40:03;9.20;;;8.50;;
4957;SDS011;2494;51.872;9.688;2022-10-04T08:45:40;11.07;;;10.07;;
4957;SDS011;2494;51.872;9.688;2022-10-04T08:48:39;8.27;;;7.63;;
4957;SDS011;2494;51.872;9.688;2022-10-04T08:54:07;8.93;;;8.13;;
4957;SDS011;2494;51.872;9.688;2022-10-04T08:56:44;9.63;;;8.80;;
4957;SDS011;2494;51.872;9.688;2022-10-04T08:59:20;8.47;;;7.70;;
4957;SDS011;2494;51.872;9.688;2022-10-04T09:02:00;7.67;;;7.07;;
4957;SDS011;2494;51.872;9.688;2022-10-04T09:04:38;7.53;;;6.20;;
4957;SDS011;2494;51.872;9.688;2022-10-04T09:12:47;7.27;;;6.57;;
4957;SDS011;2494;51.872;9.688;2022-10-04T09:15:21;11.70;;;7.07;;
4957;SDS011;2494;51.872;9.688;2022-10-04T09:17:57;8.40;;;7.70;;
4957;SDS011;2494;51.872;9.688;2022-10-04T09:20:31;7.93;;;7.23;;
4957;SDS011;2494;51.872;9.688;2022-10-04T09:23:03;8.53;;;7.73;;
4957;SDS011;2494;51.872;9.688;2022-10-04T09:25:41;6.17;;;5.67;;
4957;SDS011;2494;51.872;9.688;2022-10-04T09:28:17;8.50;;;6.80;;
4957;SDS011;2494;51.872;9.688;2022-10-04T09:30:51;7.30;;;6.77;;
4957;SDS011;2494;51.872;9.688;2022-10-04T09:33:24;8.93;;;8.00;;
4957;SDS011;2494;51.872;9.688;2022-10-04T09:36:05;6.70;;;6.07;;
4957;SDS011;2494;51.872;9.688;2022-10-04T09:41:33;7.57;;;6.63;;
4957;SDS011;2494;51.872;9.688;2022-10-04T09:46:52;6.00;;;5.50;;
4957;SDS011;2494;51.872;9.688;2022-10-04T09:49:27;7.43;;;6.73;;
4957;SDS011;2494;51.872;9.688;2022-10-04T09:52:04;6.60;;;6.00;;
4957;SDS011;2494;51.872;9.688;2022-10-04T09:54:45;4.60;;;4.20;;
4957;SDS011;2494;51.872;9.688;2022-10-04T09:57:28;4.80;;;4.40;;
4957;SDS011;2494;51.872;9.688;2022-10-04T10:00:07;5.37;;;4.87;;
4957;SDS011;2494;51.872;9.688;2022-10-04T10:05:28;6.73;;;5.07;;
4957;SDS011;2494;51.872;9.688;2022-10-04T10:07:58;5.50;;;5.10;;
4957;SDS011;2494;51.872;9.688;2022-10-04T10:10:28;4.90;;;4.40;;
4957;SDS011;2494;51.872;9.688;2022-10-04T10:13:25;4.60;;;4.20;;
4957;SDS011;2494;51.872;9.688;2022-10-04T10:18:52;5.00;;;4.20;;
4957;SDS011;2494;51.872;9.688;2022-10-04T10:21:27;7.13;;;4.30;;
4957;SDS011;2494;51.872;9.688;2022-10-04T10:24:07;6.17;;;4.43;;
4957;SDS011;2494;51.872;9.688;2022-10-04T10:35:05;6.63;;;4.53;;
4957;SDS011;2494;51.872;9.688;2022-10-04T10:37:42;7.70;;;3.60;;
4957;SDS011;2494;51.872;9.688;2022-10-04T10:40:27;7.17;;;6.57;;
4957;SDS011;2494;51.872;9.688;2022-10-04T10:43:18;6.00;;;5.40;;
4957;SDS011;2494;51.872;9.688;2022-10-04T10:45:54;6.70;;;3.40;;
4957;SDS011;2494;51.872;9.688;2022-10-04T10:48:28;7.87;;;4.17;;
4957;SDS011;2494;51.872;9.688;2022-10-04T10:51:02;4.30;;;3.70;;
4957;SDS011;2494;51.872;9.688;2022-10-04T10:53:45;8.83;;;3.70;;
4957;SDS011;2494;51.872;9.688;2022-10-04T10:56:23;2.43;;;2.00;;
4957;SDS011;2494;51.872;9.688;2022-10-04T10:59:01;2.63;;;2.27;;
4957;SDS011;2494;51.872;9.688;2022-10-04T11:01:39;5.20;;;2.40;;
4957;SDS011;2494;51.872;9.688;2022-10-04T11:04:25;4.10;;;2.77;;
4957;SDS011;2494;51.872;9.688;2022-10-04T11:12:27;3.47;;;2.40;;
4957;SDS011;2494;51.872;9.688;2022-10-04T11:15:08;2.93;;;2.37;;
4957;SDS011;2494;51.872;9.688;2022-10-04T11:20:43;5.83;;;2.70;;
4957;SDS011;2494;51.872;9.688;2022-10-04T11:28:48;5.30;;;2.77;;
4957;SDS011;2494;51.872;9.688;2022-10-04T11:31:37;7.67;;;4.20;;
4957;SDS011;2494;51.872;9.688;2022-10-04T11:34:25;3.70;;;2.63;;
4957;SDS011;2494;51.872;9.688;2022-10-04T11:37:04;2.93;;;2.43;;
4957;SDS011;2494;51.872;9.688;2022-10-04T11:39:36;4.33;;;2.90;;
4957;SDS011;2494;51.872;9.688;2022-10-04T11:42:09;6.13;;;3.00;;
4957;SDS011;2494;51.872;9.688;2022-10-04T11:52:57;3.93;;;3.27;;
4957;SDS011;2494;51.872;9.688;2022-10-04T11:55:34;4.83;;;3.07;;
4957;SDS011;2494;51.872;9.688;2022-10-04T11:58:07;3.33;;;3.03;;
4957;SDS011;2494;51.872;9.688;2022-10-04T12:00:57;3.20;;;2.90;;
4957;SDS011;2494;51.872;9.688;2022-10-04T12:03:34;2.87;;;2.37;;
4957;SDS011;2494;51.872;9.688;2022-10-04T12:06:13;4.83;;;2.80;;
4957;SDS011;2494;51.872;9.688;2022-10-04T12:08:47;3.50;;;2.47;;
4957;SDS011;2494;51.872;9.688;2022-10-04T12:11:23;3.50;;;3.10;;
4957;SDS011;2494;51.872;9.688;2022-10-04T12:13:54;8.50;;;2.37;;
4957;SDS011;2494;51.872;9.688;2022-10-04T12:16:31;3.20;;;2.80;;
4957;SDS011;2494;51.872;9.688;2022-10-04T12:19:14;5.47;;;2.57;;
4957;SDS011;2494;51.872;9.688;2022-10-04T12:21:50;3.03;;;2.83;;
4957;SDS011;2494;51.872;9.688;2022-10-04T12:24:26;8.37;;;2.30;;
4957;SDS011;2494;51.872;9.688;2022-10-04T12:27:08;3.40;;;2.50;;
4957;SDS011;2494;51.872;9.688;2022-10-04T12:29:57;4.10;;;2.50;;
4957;SDS011;2494;51.872;9.688;2022-10-04T12:32:28;4.43;;;2.50;;
4957;SDS011;2494;51.872;9.688;2022-10-04T12:35:01;4.80;;;3.10;;
4957;SDS011;2494;51.872;9.688;2022-10-04T12:37:34;4.90;;;3.23;;
4957;SDS011;2494;51.872;9.688;2022-10-04T12:43:02;2.53;;;2.33;;
4957;SDS011;2494;51.872;9.688;2022-10-04T12:45:33;5.07;;;2.87;;
4957;SDS011;2494;51.872;9.688;2022-10-04T12:48:10;5.60;;;2.60;;
4957;SDS011;2494;51.872;9.688;2022-10-04T12:50:44;4.83;;;2.43;;
4957;SDS011;2494;51.872;9.688;2022-10-04T12:53:16;4.20;;;2.40;;
4957;SDS011;2494;51.872;9.688;2022-10-04T12:55:46;3.20;;;2.90;;
4957;SDS011;2494;51.872;9.688;2022-10-04T12:58:17;4.60;;;3.13;;
4957;SDS011;2494;51.872;9.688;2022-10-04T13:00:47;3.27;;;2.50;;
4957;SDS011;2494;51.872;9.688;2022-10-04T13:03:23;3.33;;;2.53;;
4957;SDS011;2494;51.872;9.688;2022-10-04T13:05:56;4.37;;;2.30;;
4957;SDS011;2494;51.872;9.688;2022-10-04T13:08:30;3.20;;;2.27;;
4957;SDS011;2494;51.872;9.688;2022-10-04T13:11:05;3.23;;;2.50;;
4957;SDS011;2494;51.872;9.688;2022-10-04T13:13:49;3.50;;;2.40;;
4957;SDS011;2494;51.872;9.688;2022-10-04T13:16:23;4.03;;;2.90;;
4957;SDS011;2494;51.872;9.688;2022-10-04T13:18:56;3.33;;;2.50;;
4957;SDS011;2494;51.872;9.688;2022-10-04T13:21:40;3.23;;;2.50;;
4957;SDS011;2494;51.872;9.688;2022-10-04T13:24:11;3.30;;;2.30;;
4957;SDS011;2494;51.872;9.688;2022-10-04T13:26:41;3.60;;;2.37;;
4957;SDS011;2494;51.872;9.688;2022-10-04T13:29:14;2.63;;;2.27;;
4957;SDS011;2494;51.872;9.688;2022-10-04T13:31:44;4.37;;;2.40;;
4957;SDS011;2494;51.872;9.688;2022-10-04T13:34:16;3.63;;;2.60;;
4957;SDS011;2494;51.872;9.688;2022-10-04T13:36:52;4.57;;;2.13;;
4957;SDS011;2494;51.872;9.688;2022-10-04T13:39:29;6.00;;;3.57;;
4957;SDS011;2494;51.872;9.688;2022-10-04T13:42:06;5.53;;;2.20;;
4957;SDS011;2494;51.872;9.688;2022-10-04T13:44:42;2.70;;;2.43;;
4957;SDS011;2494;51.872;9.688;2022-10-04T13:50:02;3.10;;;2.70;;
4957;SDS011;2494;51.872;9.688;2022-10-04T13:52:37;3.57;;;2.23;;
4957;SDS011;2494;51.872;9.688;2022-10-04T13:55:25;3.37;;;2.57;;
4957;SDS011;2494;51.872;9.688;2022-10-04T13:58:14;3.23;;;2.20;;
4957;SDS011;2494;51.872;9.688;2022-10-04T14:00:49;2.80;;;2.57;;
4957;SDS011;2494;51.872;9.688;2022-10-04T14:03:22;3.60;;;2.40;;
4957;SDS011;2494;51.872;9.688;2022-10-04T14:06:02;5.67;;;2.53;;
4957;SDS011;2494;51.872;9.688;2022-10-04T14:11:36;2.50;;;2.30;;
4957;SDS011;2494;51.872;9.688;2022-10-04T14:19:47;3.70;;;2.30;;
4957;SDS011;2494;51.872;9.688;2022-10-04T14:22:30;2.90;;;2.20;;
4957;SDS011;2494;51.872;9.688;2022-10-04T14:30:25;4.17;;;2.43;;
4957;SDS011;2494;51.872;9.688;2022-10-04T14:35:43;6.53;;;2.67;;
4957;SDS011;2494;51.872;9.688;2022-10-04T14:41:05;3.17;;;2.87;;
4957;SDS011;2494;51.872;9.688;2022-10-04T14:43:52;2.70;;;2.50;;
4957;SDS011;2494;51.872;9.688;2022-10-04T14:46:22;2.60;;;2.40;;
4957;SDS011;2494;51.872;9.688;2022-10-04T14:48:59;4.53;;;2.73;;
4957;SDS011;2494;51.872;9.688;2022-10-04T14:51:40;3.10;;;2.70;;
4957;SDS011;2494;51.872;9.688;2022-10-04T14:54:11;3.20;;;2.97;;
4957;SDS011;2494;51.872;9.688;2022-10-04T14:56:49;4.03;;;3.13;;
4957;SDS011;2494;51.872;9.688;2022-10-04T15:02:21;7.00;;;6.30;;
4957;SDS011;2494;51.872;9.688;2022-10-04T15:05:00;3.60;;;3.27;;
4957;SDS011;2494;51.872;9.688;2022-10-04T15:07:34;6.20;;;4.00;;
4957;SDS011;2494;51.872;9.688;2022-10-04T15:10:04;7.83;;;3.70;;
4957;SDS011;2494;51.872;9.688;2022-10-04T15:12:52;5.30;;;4.30;;
4957;SDS011;2494;51.872;9.688;2022-10-04T15:15:24;5.63;;;2.90;;
4957;SDS011;2494;51.872;9.688;2022-10-04T15:17:55;3.17;;;2.70;;
4957;SDS011;2494;51.872;9.688;2022-10-04T15:20:24;3.70;;;2.63;;
4957;SDS011;2494;51.872;9.688;2022-10-04T15:22:55;6.30;;;3.13;;
4957;SDS011;2494;51.872;9.688;2022-10-04T15:25:36;6.43;;;2.13;;
4957;SDS011;2494;51.872;9.688;2022-10-04T15:28:03;5.20;;;2.53;;
4957;SDS011;2494;51.872;9.688;2022-10-04T15:30:36;4.60;;;2.73;;
4957;SDS011;2494;51.872;9.688;2022-10-04T15:33:16;5.53;;;2.40;;
4957;SDS011;2494;51.872;9.688;2022-10-04T15:35:47;4.13;;;2.23;;
4957;SDS011;2494;51.872;9.688;2022-10-04T15:38:19;2.90;;;2.20;;
4957;SDS011;2494;51.872;9.688;2022-10-04T15:40:53;7.13;;;2.57;;
4957;SDS011;2494;51.872;9.688;2022-10-04T15:43:23;4.57;;;2.60;;
4957;SDS011;2494;51.872;9.688;2022-10-04T15:45:54;4.40;;;2.73;;
4957;SDS011;2494;51.872;9.688;2022-10-04T15:48:46;3.93;;;1.93;;
4957;SDS011;2494;51.872;9.688;2022-10-04T15:51:16;2.87;;;2.60;;
4957;SDS011;2494;51.872;9.688;2022-10-04T15:56:31;3.70;;;2.30;;
4957;SDS011;2494;51.872;9.688;2022-10-04T15:59:12;3.47;;;2.43;;
4957;SDS011;2494;51.872;9.688;2022-10-04T16:01:48;3.00;;;2.70;;
4957;SDS011;2494;51.872;9.688;2022-10-04T16:04:30;7.33;;;3.50;;
4957;SDS011;2494;51.872;9.688;2022-10-04T16:07:07;5.53;;;2.50;;
4957;SDS011;2494;51.872;9.688;2022-10-04T16:09:37;7.53;;;4.43;;
4957;SDS011;2494;51.872;9.688;2022-10-04T16:12:12;7.33;;;5.03;;
4957;SDS011;2494;51.872;9.688;2022-10-04T16:14:52;5.70;;;3.80;;
4957;SDS011;2494;51.872;9.688;2022-10-04T16:23:22;4.50;;;4.10;;
4957;SDS011;2494;51.872;9.688;2022-10-04T16:25:49;4.17;;;2.63;;
4957;SDS011;2494;51.872;9.688;2022-10-04T16:28:20;4.03;;;2.17;;
4957;SDS011;2494;51.872;9.688;2022-10-04T16:30:58;3.23;;;2.30;;
4957;SDS011;2494;51.872;9.688;2022-10-04T16:33:28;4.87;;;4.07;;
4957;SDS011;2494;51.872;9.688;2022-10-04T16:36:00;7.07;;;4.30;;
4957;SDS011;2494;51.872;9.688;2022-10-04T16:38:29;7.60;;;6.43;;
4957;SDS011;2494;51.872;9.688;2022-10-04T16:41:04;4.73;;;4.23;;
4957;SDS011;2494;51.872;9.688;2022-10-04T16:43:35;7.37;;;6.10;;
4957;SDS011;2494;51.872;9.688;2022-10-04T16:46:08;5.50;;;4.00;;
4957;SDS011;2494;51.872;9.688;2022-10-04T16:48:43;3.50;;;3.20;;
4957;SDS011;2494;51.872;9.688;2022-10-04T16:51:19;8.23;;;5.23;;
4957;SDS011;2494;51.872;9.688;2022-10-04T16:53:49;7.23;;;4.03;;
4957;SDS011;2494;51.872;9.688;2022-10-04T16:56:18;3.70;;;2.90;;
4957;SDS011;2494;51.872;9.688;2022-10-04T16:58:53;7.33;;;3.33;;
4957;SDS011;2494;51.872;9.688;2022-10-04T17:04:06;6.23;;;5.30;;
4957;SDS011;2494;51.872;9.688;2022-10-04T17:06:47;4.80;;;4.27;;
4957;SDS011;2494;51.872;9.688;2022-10-04T17:09:16;2.63;;;2.43;;
4957;SDS011;2494;51.872;9.688;2022-10-04T17:11:46;3.83;;;2.60;;
4957;SDS011;2494;51.872;9.688;2022-10-04T17:14:34;4.23;;;2.67;;
4957;SDS011;2494;51.872;9.688;2022-10-04T17:17:15;3.53;;;2.60;;
4957;SDS011;2494;51.872;9.688;2022-10-04T17:19:45;3.70;;;2.60;;
4957;SDS011;2494;51.872;9.688;2022-10-04T17:22:18;3.30;;;3.03;;
4957;SDS011;2494;51.872;9.688;2022-10-04T17:24:51;4.80;;;2.47;;
4957;SDS011;2494;51.872;9.688;2022-10-04T17:27:24;3.77;;;2.40;;
4957;SDS011;2494;51.872;9.688;2022-10-04T17:29:56;3.27;;;2.90;;
4957;SDS011;2494;51.872;9.688;2022-10-04T17:32:28;4.37;;;3.27;;
4957;SDS011;2494;51.872;9.688;2022-10-04T17:35:05;2.73;;;2.50;;
4957;SDS011;2494;51.872;9.688;2022-10-04T17:37:39;4.20;;;2.57;;
4957;SDS011;2494;51.872;9.688;2022-10-04T17:40:22;2.53;;;2.30;;
4957;SDS011;2494;51.872;9.688;2022-10-04T17:42:55;4.23;;;2.17;;
4957;SDS011;2494;51.872;9.688;2022-10-04T17:48:14;4.03;;;3.30;;
4957;SDS011;2494;51.872;9.688;2022-10-04T17:50:59;7.37;;;6.60;;
4957;SDS011;2494;51.872;9.688;2022-10-04T17:53:46;10.33;;;7.00;;
4957;SDS011;2494;51.872;9.688;2022-10-04T17:56:32;5.57;;;4.47;;
4957;SDS011;2494;51.872;9.688;2022-10-04T17:59:04;9.07;;;5.90;;
4957;SDS011;2494;51.872;9.688;2022-10-04T18:01:32;9.43;;;5.93;;